Severn Bridge, Canada
Current Conditions -  °F | °C
As of 11:00 AM on Wednesday 26 Nov 2014 (Local Time) from CYQA Reporting Station
Overcast Overcast  
Wind Chill: 23°   Ceiling: 3400
Heat Index: 28°   Visibility: 9mi
Dew Point: 19°   Wind: 5mph
Humidity: 69%   Direction: 50°NE
Pressure: 30.18"   Gusts: NA
Location:  44.77°N, 79.33°W
Report Text: CYQA 261600Z AUTO 05004KT 360V130 9SM OVC034 M02/M07 A3018 RMK PRESFR SLP235
Loading
Personal Weather Stations






























Interactive Weather Map New forecast layout! Learn more

10-Day Weather Forecast

Advertisements
Track Severe Weather on mobile